Time;durP1;ratioP1;P1;durP2;ratioP2;P2;SDS_P1;SDS_P2;PMS_P1;PMS_P2;Temp;Humidity;BMP_temperature;BMP_pressure;BME280_temperature;BME280_humidity;BME280_pressure;Samples;Min_cycle;Max_cycle;Signal;HPM_P1;HPM_P2
2023/02/11 00:01:24;;;;;;;7.88;5.43;;;;;;;18.65;40.05;103389.47;4993133;28;20037;-72
2023/02/11 00:03:50;;;;;;;9.57;5.25;;;;;;;18.66;40.29;103379.78;4993016;28;20034;-73
2023/02/11 00:06:16;;;;;;;8.15;5.55;;;;;;;18.61;40.08;103363.25;4993433;28;20034;-74
2023/02/11 00:08:41;;;;;;;8.98;5.35;;;;;;;18.59;40.15;103365.13;4993766;28;20429;-73
2023/02/11 00:11:09;;;;;;;9.63;5.30;;;;;;;18.62;39.74;103368.47;4992252;28;20040;-76
2023/02/11 00:13:34;;;;;;;9.45;5.70;;;;;;;18.58;40.07;103366.03;4993143;28;20053;-73
2023/02/11 00:16:05;;;;;;;11.68;5.60;;;;;;;18.57;39.92;103377.53;4992119;28;20034;-72
2023/02/11 00:18:30;;;;;;;8.85;4.90;;;;;;;18.57;39.58;103372.25;4993172;28;20040;-73
2023/02/11 00:20:56;;;;;;;7.50;5.00;;;;;;;18.54;39.84;103360.03;4993350;28;20394;-72
2023/02/11 00:23:21;;;;;;;8.52;5.03;;;;;;;18.53;39.93;103352.16;4993250;28;20271;-73
2023/02/11 00:25:47;;;;;;;8.65;4.90;;;;;;;18.52;40.01;103345.16;4993136;28;20482;-76
2023/02/11 00:28:12;;;;;;;8.03;4.97;;;;;;;18.49;39.99;103344.38;4992955;28;20073;-76
2023/02/11 00:30:38;;;;;;;8.35;5.50;;;;;;;18.53;39.85;103357.47;4993009;28;20267;-74
2023/02/11 00:33:03;;;;;;;7.40;4.85;;;;;;;18.48;39.79;103360.28;4993497;28;20620;-74
2023/02/11 00:35:28;;;;;;;8.63;5.43;;;;;;;18.49;39.78;103367.31;4992812;28;20549;-71
2023/02/11 00:37:55;;;;;;;8.65;5.22;;;;;;;18.46;39.74;103357.72;4993713;28;20062;-73
2023/02/11 00:40:21;;;;;;;8.52;4.72;;;;;;;18.47;39.81;103363.88;4992828;28;20041;-72
2023/02/11 00:42:46;;;;;;;8.48;4.47;;;;;;;18.46;39.81;103356.88;4992512;28;20271;-74
2023/02/11 00:45:11;;;;;;;8.35;5.00;;;;;;;18.47;39.58;103366.53;4993187;28;20037;-73
2023/02/11 00:47:37;;;;;;;8.43;4.38;;;;;;;18.43;39.62;103362.28;4992320;28;20034;-73
2023/02/11 00:50:04;;;;;;;7.15;4.32;;;;;;;18.42;39.55;103353.50;4992790;28;20128;-75
2023/02/11 00:52:30;;;;;;;7.07;4.22;;;;;;;18.43;39.64;103352.56;4998896;28;20033;-72
2023/02/11 00:54:56;;;;;;;8.13;4.75;;;;;;;18.42;39.64;103350.88;4992221;28;20467;-73
2023/02/11 00:57:21;;;;;;;7.93;4.57;;;;;;;18.39;39.46;103351.00;4993097;28;20049;-72
2023/02/11 00:59:51;;;;;;;7.88;4.70;;;;;;;18.39;39.46;103355.41;4992170;28;20045;-73
2023/02/11 01:02:16;;;;;;;8.45;4.63;;;;;;;18.36;39.44;103342.34;4999272;28;20045;-73
2023/02/11 01:04:42;;;;;;;7.53;4.28;;;;;;;18.36;39.61;103347.59;4992680;28;20038;-73
2023/02/11 01:07:07;;;;;;;7.47;4.55;;;;;;;18.38;39.63;103361.63;4992651;28;20030;-72
2023/02/11 01:09:33;;;;;;;7.22;4.32;;;;;;;18.37;39.63;103358.09;4992706;28;20064;-73
2023/02/11 01:11:58;;;;;;;7.65;4.05;;;;;;;18.37;39.57;103350.19;4991177;28;20111;-72
2023/02/11 01:14:23;;;;;;;7.03;4.40;;;;;;;18.34;39.48;103349.47;4991849;28;20046;-73
2023/02/11 01:16:49;;;;;;;8.15;4.20;;;;;;;18.34;39.73;103355.63;4993059;28;20042;-73
2023/02/11 01:19:14;;;;;;;6.95;4.03;;;;;;;18.37;39.50;103362.53;4991843;28;20059;-73
2023/02/11 01:21:39;;;;;;;6.60;3.90;;;;;;;18.36;39.52;103359.06;4991727;28;20089;-75
2023/02/11 01:24:05;;;;;;;6.80;3.50;;;;;;;18.34;39.45;103352.09;4991906;28;20345;-73
2023/02/11 01:26:30;;;;;;;6.25;3.67;;;;;;;18.36;39.47;103369.59;4992241;28;20260;-74
2023/02/11 01:28:55;;;;;;;7.38;4.10;;;;;;;18.34;39.65;103370.59;4992053;28;20046;-72
2023/02/11 01:31:20;;;;;;;8.20;4.28;;;;;;;18.33;39.55;103364.47;4991175;28;20030;-70
2023/02/11 01:33:46;;;;;;;9.25;4.15;;;;;;;18.33;39.74;103376.81;4991916;28;20041;-72
2023/02/11 01:36:12;;;;;;;6.80;4.00;;;;;;;18.33;39.82;103366.25;4992294;28;20030;-74
2023/02/11 01:38:38;;;;;;;7.50;4.13;;;;;;;18.31;39.57;103361.03;4992250;28;20088;-74
2023/02/11 01:41:07;;;;;;;6.95;3.78;;;;;;;18.31;39.55;103369.81;4991569;28;20042;-73
2023/02/11 01:43:39;;;;;;;7.60;3.65;;;;;;;18.28;39.57;103354.09;4991561;28;20031;-72
2023/02/11 01:46:36;;;;;;;6.88;3.92;;;;;;;18.29;39.64;103353.19;4992210;28;20038;-72
2023/02/11 01:49:08;;;;;;;6.15;3.50;;;;;;;18.29;39.45;103347.03;4991196;28;20056;-75
2023/02/11 01:51:42;;;;;;;7.78;3.28;;;;;;;18.24;39.25;103336.66;4992420;28;20545;-73
2023/02/11 01:59:53;;;;;;;7.93;3.90;;;;;;;18.22;39.20;103330.59;4991619;28;20556;-73
2023/02/11 02:02:25;;;;;;;6.65;3.42;;;;;;;18.20;39.32;103328.94;4991845;28;20037;-72
2023/02/11 02:05:03;;;;;;;8.60;3.83;;;;;;;18.22;39.51;103338.50;4990902;28;20037;-74
2023/02/11 02:07:59;;;;;;;7.25;3.95;;;;;;;18.23;39.44;103339.34;4991695;28;20038;-71
2023/02/11 02:10:27;;;;;;;6.38;3.22;;;;;;;18.22;39.35;103332.38;4976716;28;20177;-72
2023/02/11 02:12:52;;;;;;;6.57;3.38;;;;;;;18.17;39.43;103323.81;4991569;28;20053;-75
2023/02/11 02:15:21;;;;;;;7.93;3.40;;;;;;;18.19;39.50;103321.94;4991917;28;20042;-71
2023/02/11 02:18:18;;;;;;;6.72;3.50;;;;;;;18.20;39.26;103321.88;4991597;28;20031;-72
2023/02/11 02:21:28;;;;;;;6.38;3.35;;;;;;;18.21;39.39;103325.38;4985325;28;20041;-75
2023/02/11 02:24:20;;;;;;;7.38;3.58;;;;;;;18.20;39.21;103337.72;4994461;28;20485;-75
2023/02/11 02:27:13;;;;;;;7.32;3.45;;;;;;;18.18;39.43;103334.28;4995688;28;20632;-75
2023/02/11 02:30:16;;;;;;;6.80;3.35;;;;;;;18.17;39.22;103337.84;4995867;28;20441;-72
2023/02/11 02:33:08;;;;;;;5.78;3.05;;;;;;;18.12;39.23;103330.13;4995128;28;20080;-74
2023/02/11 02:35:50;;;;;;;6.72;3.45;;;;;;;18.13;39.01;103336.25;4993840;28;20034;-73
2023/02/11 02:38:27;;;;;;;5.50;3.22;;;;;;;18.09;39.20;103334.69;5001546;28;20033;-73
2023/02/11 02:41:00;;;;;;;5.95;3.38;;;;;;;18.08;39.35;103333.81;4995495;28;20121;-75
2023/02/11 02:43:27;;;;;;;6.75;3.60;;;;;;;18.10;39.13;103326.69;4995671;28;20092;-73
2023/02/11 02:45:53;;;;;;;6.68;3.13;;;;;;;18.05;39.15;103323.38;4995300;28;20049;-76
2023/02/11 02:48:25;;;;;;;6.60;3.13;;;;;;;18.07;38.96;103323.31;4995012;28;20262;-73
2023/02/11 02:51:12;;;;;;;7.40;3.17;;;;;;;18.09;38.96;103332.91;4994742;28;20080;-73
2023/02/11 02:53:49;;;;;;;7.78;2.95;;;;;;;18.09;39.04;103317.06;4995363;28;20137;-74
2023/02/11 02:56:24;;;;;;;5.13;3.00;;;;;;;18.09;39.27;103321.50;4993986;28;20046;-76
2023/02/11 02:59:04;;;;;;;;;;;;;;;18.12;39.01;103324.00;4995806;28;20136;-72
2023/02/11 03:01:47;;;;;;;5.90;2.80;;;;;;;18.08;39.28;103319.75;4994133;28;19914;-72
2023/02/11 03:04:26;;;;;;;6.55;2.85;;;;;;;18.07;39.19;103332.09;4994816;28;20490;-73
2023/02/11 03:07:01;;;;;;;7.05;3.17;;;;;;;18.00;38.93;103319.22;4994793;28;20035;-74
2023/02/11 03:09:34;;;;;;;5.45;2.95;;;;;;;18.04;39.08;103331.34;4994040;28;20379;-76
2023/02/11 03:12:02;;;;;;;8.48;3.28;;;;;;;18.00;39.16;103328.00;4993892;28;20034;-72
2023/02/11 03:14:29;;;;;;;8.63;2.90;;;;;;;18.00;38.81;103328.00;4994480;28;20061;-76
2023/02/11 03:17:00;;;;;;;7.40;3.08;;;;;;;18.00;38.71;103320.06;4994738;28;20040;-74
2023/02/11 03:19:33;;;;;;;6.82;3.00;;;;;;;17.99;38.88;103313.09;4993981;28;20939;-72
2023/02/11 03:22:02;;;;;;;8.20;3.78;;;;;;;17.99;38.77;103312.22;4995044;28;20471;-77
2023/02/11 03:24:35;;;;;;;5.32;2.90;;;;;;;18.01;38.74;103315.66;5000621;28;20092;-74
2023/02/11 03:27:08;;;;;;;6.38;2.90;;;;;;;18.00;38.88;103317.44;4994577;28;20092;-76
2023/02/11 03:29:45;;;;;;;7.43;3.47;;;;;;;18.00;38.94;103306.03;4993935;28;20030;-74
2023/02/11 03:32:35;;;;;;;5.50;2.80;;;;;;;17.99;39.10;103313.09;4994717;28;20078;-75
2023/02/11 03:35:06;;;;;;;7.82;3.17;;;;;;;18.00;39.11;103320.06;4993696;28;20060;-73
2023/02/11 03:37:35;;;;;;;6.20;3.25;;;;;;;17.99;39.13;103309.59;4994434;28;20039;-72
2023/02/11 03:40:04;;;;;;;6.13;3.47;;;;;;;17.99;39.20;103306.94;4994179;28;20034;-73
2023/02/11 03:42:36;;;;;;;7.00;3.20;;;;;;;17.97;39.16;103319.34;4994454;28;20038;-75
2023/02/11 03:45:06;;;;;;;6.88;3.00;;;;;;;17.98;38.77;103315.81;4993000;28;20038;-74
2023/02/11 03:47:35;;;;;;;6.30;3.15;;;;;;;17.94;39.12;103320.31;4994041;28;20041;-72
2023/02/11 03:50:04;;;;;;;8.07;2.83;;;;;;;17.97;38.77;103327.28;4993660;28;20042;-73
2023/02/11 03:52:31;;;;;;;5.82;2.83;;;;;;;17.97;39.08;103333.41;4993792;28;20391;-72
2023/02/11 03:54:59;;;;;;;6.15;2.70;;;;;;;17.97;38.92;103335.19;4994382;28;20171;-74
2023/02/11 03:57:24;;;;;;;5.38;3.15;;;;;;;17.97;38.95;103327.28;4993811;28;20030;-73
2023/02/11 03:59:58;;;;;;;6.07;2.85;;;;;;;17.95;38.83;103322.06;4994181;28;20589;-75
2023/02/11 04:02:28;;;;;;;6.95;2.65;;;;;;;17.90;38.98;103319.59;4993461;28;20410;-73
2023/02/11 04:04:53;;;;;;;6.38;2.90;;;;;;;17.95;38.87;103322.06;4992734;28;20040;-73
2023/02/11 04:07:19;;;;;;;6.47;2.33;;;;;;;17.88;39.16;103313.53;4994487;28;20033;-75
2023/02/11 04:09:45;;;;;;;6.07;2.78;;;;;;;17.92;39.20;103314.25;4992465;28;20506;-73
2023/02/11 04:12:10;;;;;;;5.82;2.80;;;;;;;17.92;38.99;103301.06;4993341;28;20052;-73
2023/02/11 04:14:35;;;;;;;6.18;2.88;;;;;;;17.93;39.18;103300.16;4994557;28;20510;-74
2023/02/11 04:17:01;;;;;;;7.82;2.75;;;;;;;17.90;38.99;103293.22;4993300;28;20081;-74
2023/02/11 04:19:26;;;;;;;7.38;2.88;;;;;;;17.90;38.90;103289.72;4993201;28;20395;-72
2023/02/11 04:21:52;;;;;;;5.78;2.40;;;;;;;17.90;39.14;103287.94;4993600;28;20030;-72
2023/02/11 04:24:17;;;;;;;6.65;2.75;;;;;;;17.90;39.07;103284.47;4999230;28;20041;-75
2023/02/11 04:26:42;;;;;;;4.93;2.50;;;;;;;17.89;38.93;103280.09;4993483;28;20068;-73
2023/02/11 04:29:07;;;;;;;7.18;2.80;;;;;;;17.87;38.86;103274.84;4993364;28;20034;-72
2023/02/11 04:31:33;;;;;;;7.63;2.40;;;;;;;17.87;38.91;103284.56;4993030;28;20081;-72
2023/02/11 04:33:58;;;;;;;5.43;2.60;;;;;;;17.85;38.79;103273.19;4994004;28;20038;-74
2023/02/11 04:36:23;;;;;;;7.07;2.40;;;;;;;17.87;39.16;103279.28;4993376;28;20041;-72
2023/02/11 04:38:48;;;;;;;5.93;2.42;;;;;;;17.87;39.18;103282.75;4993326;28;20152;-75
2023/02/11 04:41:14;;;;;;;7.32;2.78;;;;;;;17.88;39.22;103279.25;4993427;28;20065;-72
2023/02/11 04:43:39;;;;;;;5.53;2.33;;;;;;;17.88;39.02;103291.56;4992877;28;20038;-73
2023/02/11 04:46:04;;;;;;;5.78;2.65;;;;;;;17.87;39.12;103288.03;4992550;28;20153;-72
2023/02/11 04:48:30;;;;;;;7.32;2.67;;;;;;;17.79;38.92;103276.97;4991936;28;20118;-74
2023/02/11 04:50:55;;;;;;;6.68;2.55;;;;;;;17.87;38.88;103292.47;4993049;28;20092;-74
2023/02/11 04:53:21;;;;;;;5.75;2.40;;;;;;;17.89;38.74;103298.56;4991956;28;20475;-74
2023/02/11 04:55:49;;;;;;;6.05;2.60;;;;;;;17.85;39.12;103303.09;4991791;28;20141;-73
2023/02/11 04:58:15;;;;;;;7.13;2.72;;;;;;;17.83;39.14;103294.38;4991337;28;20112;-73
2023/02/11 05:00:41;;;;;;;5.68;2.50;;;;;;;17.84;39.18;103298.72;4991989;28;20201;-70
2023/02/11 05:03:06;;;;;;;5.82;2.20;;;;;;;17.82;39.16;103300.56;4992695;28;20108;-72
2023/02/11 05:05:31;;;;;;;8.13;2.78;;;;;;;17.81;39.19;103292.72;4993501;28;20042;-73
2023/02/11 05:07:56;;;;;;;5.22;2.47;;;;;;;17.81;39.12;103293.56;4992819;28;20105;-75
2023/02/11 05:10:22;;;;;;;6.80;2.60;;;;;;;17.82;39.28;103291.81;4992539;28;20033;-71
2023/02/11 05:12:48;;;;;;;5.03;2.25;;;;;;;17.83;39.14;103293.50;4991962;28;20180;-72
2023/02/11 05:15:14;;;;;;;5.70;2.40;;;;;;;17.84;39.21;103305.78;4991111;28;20549;-72
2023/02/11 05:17:39;;;;;;;7.25;2.80;;;;;;;17.81;39.13;103303.28;4991034;28;20042;-74
2023/02/11 05:20:05;;;;;;;6.00;2.67;;;;;;;17.82;39.01;103312.91;4992431;28;20061;-72
2023/02/11 05:22:30;;;;;;;7.15;2.67;;;;;;;17.79;39.21;103305.13;4997730;28;20088;-71
2023/02/11 05:24:55;;;;;;;6.75;2.50;;;;;;;17.79;39.09;103297.22;4991712;28;20029;-74
2023/02/11 05:27:21;;;;;;;5.75;2.25;;;;;;;17.79;39.02;103294.56;4991926;28;20358;-73
2023/02/11 05:29:46;;;;;;;5.78;2.63;;;;;;;17.79;39.07;103290.16;4991697;28;20042;-73
2023/02/11 05:32:11;;;;;;;7.57;2.47;;;;;;;17.74;39.29;103290.31;4992206;28;20463;-74
2023/02/11 05:34:37;;;;;;;5.47;2.40;;;;;;;17.77;39.08;103294.63;4992146;28;20078;-72
2023/02/11 05:37:02;;;;;;;6.68;2.25;;;;;;;17.77;39.00;103284.09;4990026;28;20487;-74
2023/02/11 05:39:27;;;;;;;6.97;2.53;;;;;;;17.76;39.13;103283.19;4991918;28;20042;-72
2023/02/11 05:41:53;;;;;;;7.22;2.33;;;;;;;17.77;39.07;103281.44;4991059;28;20099;-74
2023/02/11 05:44:18;;;;;;;5.57;2.30;;;;;;;17.73;39.10;103275.41;4996475;28;20032;-73
2023/02/11 05:46:43;;;;;;;4.32;1.95;;;;;;;17.77;39.46;103277.00;4990049;28;20045;-75
2023/02/11 05:49:09;;;;;;;5.00;2.08;;;;;;;17.78;39.56;103288.41;4990527;28;20042;-72
2023/02/11 05:51:34;;;;;;;4.97;1.85;;;;;;;17.72;39.55;103272.84;4991070;28;20053;-74
2023/02/11 05:53:59;;;;;;;6.13;2.05;;;;;;;17.80;39.56;103286.59;4990858;28;20034;-73
2023/02/11 05:56:25;;;;;;;5.57;2.33;;;;;;;17.81;39.55;103280.38;4997241;28;20464;-74
2023/02/11 05:58:50;;;;;;;5.35;1.88;;;;;;;17.86;39.59;103288.94;4988691;28;20037;-74
2023/02/11 06:01:15;;;;;;;5.75;2.00;;;;;;;17.93;39.45;103284.34;4996484;28;20080;-77
2023/02/11 06:03:40;;;;;;;5.97;1.77;;;;;;;17.91;39.44;103280.88;4989374;28;20076;-74
2023/02/11 06:06:11;;;;;;;3.95;1.63;;;;;;;17.97;39.79;103287.69;4990897;28;21068;-74
2023/02/11 06:08:36;;;;;;;6.07;1.80;;;;;;;17.99;39.40;103294.63;4991876;28;20039;-72
2023/02/11 06:11:02;;;;;;;5.32;1.80;;;;;;;17.99;39.74;103286.72;4991524;28;20180;-72
2023/02/11 06:13:27;;;;;;;4.43;1.88;;;;;;;18.02;39.44;103289.19;4991090;28;20060;-73
2023/02/11 06:15:57;;;;;;;4.53;1.80;;;;;;;18.03;39.38;103295.34;4991029;28;20037;-73
2023/02/11 06:18:23;;;;;;;4.03;1.60;;;;;;;18.07;39.38;103297.81;4991795;28;20780;-72
2023/02/11 06:20:48;;;;;;;5.05;1.90;;;;;;;18.08;39.40;103301.28;4991057;28;20121;-75
2023/02/11 06:23:13;;;;;;;5.70;2.07;;;;;;;18.08;39.69;103296.00;4990977;28;20034;-72
2023/02/11 06:25:38;;;;;;;5.32;1.90;;;;;;;18.10;39.36;103297.69;4992026;28;20276;-73
2023/02/11 06:28:04;;;;;;;4.82;1.90;;;;;;;18.11;39.64;103290.59;4990193;28;20430;-75
2023/02/11 06:30:29;;;;;;;4.57;1.90;;;;;;;18.14;39.48;103290.47;4990479;28;20116;-73
2023/02/11 06:32:54;;;;;;;5.53;2.00;;;;;;;18.16;39.47;103298.31;4994186;28;20739;-75
2023/02/11 06:35:20;;;;;;;5.95;1.80;;;;;;;18.15;39.35;103302.75;4998194;28;20467;-72
2023/02/11 06:37:45;;;;;;;3.83;1.75;;;;;;;18.19;39.46;103306.13;4994900;28;20064;-72
2023/02/11 06:40:11;;;;;;;5.50;2.20;;;;;;;18.18;39.50;103305.25;4991142;28;20030;-71
2023/02/11 06:42:40;;;;;;;4.47;1.73;;;;;;;18.14;39.57;103290.47;4999652;28;20033;-72
2023/02/11 06:45:08;;;;;;;5.32;2.00;;;;;;;18.19;39.46;103296.41;4999091;28;20030;-74
2023/02/11 06:47:33;;;;;;;4.60;1.73;;;;;;;18.17;39.64;103297.41;5000495;28;20069;-71
2023/02/11 06:49:59;;;;;;;7.10;1.90;;;;;;;18.22;39.55;103306.00;4998597;28;20044;-71
2023/02/11 06:52:24;;;;;;;5.32;1.88;;;;;;;18.24;39.94;103306.78;4997415;28;20065;-73
2023/02/11 06:54:49;;;;;;;5.20;1.77;;;;;;;18.23;40.21;103305.91;4996441;28;20974;-72
2023/02/11 06:57:15;;;;;;;5.63;1.70;;;;;;;18.25;40.19;103306.69;4995139;28;20038;-74
2023/02/11 06:59:40;;;;;;;5.57;2.08;;;;;;;18.25;40.40;103313.78;4996944;28;20030;-73
2023/02/11 07:02:07;;;;;;;4.97;1.77;;;;;;;18.29;40.58;103317.97;4994741;28;20121;-76
2023/02/11 07:04:33;;;;;;;5.25;1.90;;;;;;;18.32;40.51;103320.50;4995726;28;20115;-70
2023/02/11 07:06:58;;;;;;;5.88;1.83;;;;;;;18.31;40.57;103316.16;4990601;28;20121;-72
2023/02/11 07:09:23;;;;;;;5.18;1.90;;;;;;;18.33;40.86;103318.72;4991270;28;20030;-73
2023/02/11 07:11:48;;;;;;;5.05;2.10;;;;;;;18.30;41.17;103325.00;4993421;28;20125;-71
2023/02/11 07:14:14;;;;;;;5.50;2.20;;;;;;;18.29;40.91;103320.63;4994780;28;20046;-73
2023/02/11 07:16:39;;;;;;;7.13;2.00;;;;;;;18.33;41.12;103324.84;4995563;28;20142;-72
2023/02/11 07:19:04;;;;;;;5.07;1.80;;;;;;;18.31;41.26;103327.56;4998114;28;20030;-72
2023/02/11 07:21:30;;;;;;;7.32;3.15;;;;;;;18.33;41.39;103329.28;4993773;28;20038;-72
2023/02/11 07:23:55;;;;;;;5.00;2.20;;;;;;;18.32;41.56;103336.34;4995433;28;20116;-72
2023/02/11 07:26:22;;;;;;;5.97;2.20;;;;;;;18.30;41.90;103338.19;4994270;28;20037;-72
2023/02/11 07:28:48;;;;;;;5.25;2.28;;;;;;;18.33;42.00;103337.22;4994073;28;20030;-73
2023/02/11 07:31:17;;;;;;;7.35;2.50;;;;;;;18.35;42.44;103338.84;4993802;28;20717;-73
2023/02/11 07:33:44;;;;;;;5.65;2.65;;;;;;;18.34;42.63;103336.25;4993602;28;20030;-73
2023/02/11 07:36:12;;;;;;;6.10;2.50;;;;;;;18.38;42.55;103338.72;4992443;28;20075;-71
2023/02/11 07:38:38;;;;;;;5.57;2.50;;;;;;;18.39;42.90;103344.84;4994230;28;20038;-72
2023/02/11 07:41:05;;;;;;;7.07;2.60;;;;;;;18.40;42.99;103347.41;4993216;28;20036;-74
2023/02/11 07:43:31;;;;;;;7.25;3.08;;;;;;;18.40;43.08;103339.50;4993898;28;20035;-70
2023/02/11 07:45:57;;;;;;;6.85;2.50;;;;;;;18.47;43.43;103351.53;4993759;28;20022;-71
2023/02/11 07:48:22;;;;;;;7.38;3.00;;;;;;;18.46;43.19;103348.94;4993873;28;20038;-73
2023/02/11 07:50:47;;;;;;;8.55;2.70;;;;;;;18.47;43.34;103355.97;4994193;28;20538;-71
2023/02/11 07:53:13;;;;;;;7.68;2.75;;;;;;;18.46;43.56;103355.06;4993774;28;20124;-69
2023/02/11 07:55:38;;;;;;;6.38;2.70;;;;;;;18.49;43.85;103349.66;4993590;28;20403;-72
2023/02/11 07:58:03;;;;;;;6.38;2.72;;;;;;;18.52;44.10;103368.94;4993226;28;20025;-71
2023/02/11 08:00:29;;;;;;;6.40;2.65;;;;;;;18.51;44.24;103365.44;4993564;28;20038;-70
2023/02/11 08:02:56;;;;;;;5.97;2.78;;;;;;;18.54;44.32;103364.47;4993410;28;20426;-70
2023/02/11 08:05:21;;;;;;;6.35;2.47;;;;;;;18.55;44.49;103367.03;4993019;28;20041;-71
2023/02/11 08:07:51;;;;;;;6.60;2.63;;;;;;;18.56;44.60;103368.72;4993353;28;20037;-70
2023/02/11 08:10:16;;;;;;;7.68;3.17;;;;;;;18.60;44.75;103372.13;4993353;28;20030;-71
2023/02/11 08:12:41;;;;;;;7.32;2.75;;;;;;;18.60;44.82;103365.03;4992622;28;20037;-71
2023/02/11 08:15:07;;;;;;;9.53;3.63;;;;;;;18.58;44.66;103363.38;4993417;28;20054;-69
2023/02/11 08:17:34;;;;;;;9.98;3.17;;;;;;;18.58;44.71;103366.03;4993583;28;21268;-70
2023/02/11 08:20:00;;;;;;;7.15;3.45;;;;;;;18.59;44.54;103373.03;4993699;28;20200;-68
2023/02/11 08:22:25;;;;;;;7.03;3.20;;;;;;;18.57;44.71;103373.09;4992808;28;20117;-69
2023/02/11 08:24:50;;;;;;;8.00;3.80;;;;;;;18.60;44.58;103374.75;4993174;28;20510;-70
2023/02/11 08:27:16;;;;;;;7.80;3.60;;;;;;;18.63;44.30;103383.41;4991591;28;20058;-71
2023/02/11 08:29:41;;;;;;;15.85;4.05;;;;;;;18.64;44.46;103378.97;4992636;28;20044;-73
2023/02/11 08:32:06;;;;;;;7.50;3.75;;;;;;;18.65;44.65;103383.34;4992550;28;20120;-72
2023/02/11 08:34:32;;;;;;;8.85;3.95;;;;;;;18.64;44.68;103369.28;4992917;28;20736;-68
2023/02/11 08:36:58;;;;;;;7.68;3.38;;;;;;;18.63;44.63;103379.91;4983274;28;20038;-69
2023/02/11 08:39:23;;;;;;;8.88;3.53;;;;;;;18.64;44.46;103382.50;4993020;28;20124;-71
2023/02/11 08:41:53;;;;;;;8.85;3.50;;;;;;;18.65;44.89;103380.69;4992953;28;20078;-73
2023/02/11 08:44:20;;;;;;;9.43;4.30;;;;;;;18.71;44.51;103384.84;4992063;28;21242;-73
2023/02/11 08:46:46;;;;;;;7.45;4.30;;;;;;;18.67;44.64;103385.00;4992693;28;20049;-70
2023/02/11 08:49:11;;;;;;;10.23;3.97;;;;;;;18.65;44.59;103385.97;4992706;28;20055;-73
2023/02/11 08:51:36;;;;;;;10.30;4.38;;;;;;;18.64;44.52;103382.50;4991376;28;20475;-72
2023/02/11 08:54:02;;;;;;;9.77;4.57;;;;;;;18.64;44.47;103379.84;4992079;28;20046;-72
2023/02/11 08:56:29;;;;;;;8.70;4.35;;;;;;;18.63;44.70;103387.84;4998535;28;20054;-72
2023/02/11 08:58:54;;;;;;;9.25;4.40;;;;;;;18.59;44.75;103381.81;4992933;28;20049;-72
2023/02/11 09:01:25;;;;;;;8.38;4.32;;;;;;;18.61;44.39;103382.63;4993413;28;20030;-73
2023/02/11 09:03:52;;;;;;;10.52;4.40;;;;;;;18.56;44.72;103384.56;4993018;28;20057;-73
2023/02/11 09:06:17;;;;;;;9.48;4.15;;;;;;;18.63;44.89;103401.03;4992283;28;20046;-72
2023/02/11 09:08:45;;;;;;;11.88;4.57;;;;;;;18.56;44.67;103384.56;4991802;28;20089;-72
2023/02/11 09:11:11;;;;;;;9.93;4.43;;;;;;;18.63;45.01;103401.03;4991752;28;20042;-72
2023/02/11 09:13:37;;;;;;;10.50;4.97;;;;;;;18.65;44.83;103394.75;4988996;28;20131;-72
2023/02/11 09:16:04;;;;;;;11.88;5.32;;;;;;;18.68;45.33;103405.19;4992910;28;20470;-73
2023/02/11 09:18:30;;;;;;;12.68;5.63;;;;;;;18.70;45.87;103397.19;4991517;28;20035;-74
2023/02/11 09:21:07;;;;;;;12.65;6.70;;;;;;;18.71;45.62;103405.97;4992049;28;20393;-72
2023/02/11 09:23:34;;;;;;;16.52;6.20;;;;;;;18.74;45.76;103408.47;4991250;28;20121;-72
2023/02/11 09:26:13;;;;;;;10.52;5.90;;;;;;;18.74;45.71;103400.56;4991026;28;20038;-71
2023/02/11 09:28:38;;;;;;;10.40;5.45;;;;;;;18.73;45.85;103399.72;4989885;28;20478;-72
2023/02/11 09:31:08;;;;;;;10.75;5.45;;;;;;;18.73;45.67;103406.78;4991084;28;20034;-72
2023/02/11 09:33:33;;;;;;;11.02;5.60;;;;;;;18.76;45.49;103407.50;4991702;28;20463;-73
2023/02/11 09:36:04;;;;;;;10.50;4.97;;;;;;;18.74;45.24;103409.34;4992051;28;20045;-71
2023/02/11 09:38:29;;;;;;;9.75;4.63;;;;;;;18.76;45.24;103420.72;4992385;28;20034;-70
2023/02/11 09:40:55;;;;;;;10.05;5.93;;;;;;;18.72;45.26;103419.13;4991630;28;20038;-73
2023/02/11 09:43:36;;;;;;;9.43;4.90;;;;;;;18.76;45.40;103423.34;4991747;28;20427;-72
2023/02/11 09:46:03;;;;;;;12.57;5.63;;;;;;;18.79;45.18;103430.28;4989855;28;21075;-71
2023/02/11 09:48:38;;;;;;;12.57;5.47;;;;;;;18.87;45.16;103435.25;4990500;28;20033;-73
2023/02/11 09:51:05;;;;;;;10.82;5.18;;;;;;;18.90;44.87;103436.00;4991584;28;20089;-70
2023/02/11 09:53:36;;;;;;;9.48;5.45;;;;;;;18.91;44.81;103434.22;4991412;28;20029;-71
2023/02/11 09:56:10;;;;;;;10.25;5.28;;;;;;;18.84;44.90;103437.13;4990660;28;20040;-69
2023/02/11 09:58:40;;;;;;;9.60;5.43;;;;;;;18.85;44.83;103445.91;4991696;28;20329;-69
2023/02/11 10:01:28;;;;;;;9.88;4.95;;;;;;;18.84;44.83;103434.47;4991153;28;20049;-70
2023/02/11 10:04:09;;;;;;;10.20;4.82;;;;;;;18.81;44.48;103433.72;4991718;28;20041;-71
2023/02/11 10:06:40;;;;;;;10.98;4.93;;;;;;;18.82;44.61;103446.88;4991720;28;20047;-69
2023/02/11 10:09:33;;;;;;;12.13;5.18;;;;;;;18.83;44.48;103445.94;4991409;28;20467;-67
2023/02/11 10:12:13;;;;;;;12.98;6.00;;;;;;;18.87;44.15;103438.78;4989301;28;20042;-69
2023/02/11 10:14:47;;;;;;;10.77;5.88;;;;;;;18.86;44.11;103439.69;4990053;28;20050;-69
2023/02/11 10:17:12;;;;;;;10.93;5.70;;;;;;;18.84;44.29;103444.19;4990024;28;20125;-69
2023/02/11 10:19:50;;;;;;;11.13;5.53;;;;;;;18.76;44.30;103436.56;4991057;28;20165;-69
2023/02/11 10:22:21;;;;;;;9.95;5.00;;;;;;;18.79;43.97;103456.72;4991535;28;20264;-69
2023/02/11 10:25:29;;;;;;;11.60;5.55;;;;;;;18.76;44.28;103462.97;4990992;28;20053;-68
2023/02/11 10:27:58;;;;;;;10.48;5.60;;;;;;;18.74;43.96;103467.47;4985936;28;20129;-69
2023/02/11 10:30:34;;;;;;;10.40;5.50;;;;;;;18.73;43.99;103478.97;4997914;28;20410;-69
2023/02/11 10:33:14;;;;;;;11.18;5.70;;;;;;;18.72;43.99;103471.94;4990958;28;20037;-68
2023/02/11 10:35:41;;;;;;;14.90;6.85;;;;;;;18.71;43.80;103472.88;4991519;28;20077;-68
2023/02/11 10:38:07;;;;;;;12.45;6.40;;;;;;;18.79;43.46;103475.22;4987894;28;20160;-69
2023/02/11 10:40:33;;;;;;;10.52;6.40;;;;;;;18.83;43.27;103476.78;4990668;28;20092;-72
2023/02/11 10:43:02;;;;;;;10.13;6.32;;;;;;;18.87;43.28;103469.59;4990234;28;20038;-71
2023/02/11 10:45:47;;;;;;;11.80;5.97;;;;;;;18.79;43.58;103475.22;4992999;28;20042;-72
2023/02/11 10:48:40;;;;;;;10.73;5.70;;;;;;;18.81;43.39;103482.13;4995404;28;20069;-71
2023/02/11 10:51:11;;;;;;;11.10;5.85;;;;;;;18.82;43.39;103483.00;4994704;28;20042;-69
2023/02/11 10:53:37;;;;;;;11.65;6.72;;;;;;;18.80;43.49;103488.34;4993555;28;20042;-71
2023/02/11 10:56:05;;;;;;;10.55;6.22;;;;;;;18.78;43.39;103492.81;4993756;28;20026;-73
2023/02/11 10:58:43;;;;;;;10.60;6.22;;;;;;;18.78;43.55;103486.69;4994393;28;20030;-69
2023/02/11 11:01:09;;;;;;;12.80;6.18;;;;;;;18.79;43.55;103497.19;4994758;28;20026;-71
2023/02/11 11:03:53;;;;;;;10.75;7.13;;;;;;;18.80;43.55;103492.75;4994080;28;20072;-74
2023/02/11 11:06:32;;;;;;;11.53;6.00;;;;;;;18.80;43.46;103498.94;5000302;28;20405;-72
2023/02/11 11:08:57;;;;;;;11.13;6.18;;;;;;;18.79;43.19;103501.63;4994706;28;20038;-74
2023/02/11 11:11:24;;;;;;;8.73;5.72;;;;;;;18.79;43.43;103499.00;4993751;28;20793;-72
2023/02/11 11:13:52;;;;;;;10.48;6.50;;;;;;;18.75;43.43;103503.53;4994662;28;20100;-72
2023/02/11 11:16:24;;;;;;;11.05;6.93;;;;;;;18.70;43.69;103489.66;4994236;28;20478;-75
2023/02/11 11:18:52;;;;;;;10.65;6.20;;;;;;;18.76;43.70;103488.53;4994408;28;20085;-73
2023/02/11 11:21:21;;;;;;;10.88;5.72;;;;;;;18.75;43.85;103500.88;4994169;28;20039;-73
2023/02/11 11:23:51;;;;;;;12.98;6.90;;;;;;;18.79;43.62;103499.00;4993976;28;20037;-69
2023/02/11 11:26:17;;;;;;;9.85;6.90;;;;;;;18.78;43.46;103490.19;4994179;28;20054;-70
2023/02/11 11:28:45;;;;;;;11.45;6.65;;;;;;;18.76;43.21;103497.31;5000841;28;20042;-73
2023/02/11 11:31:15;;;;;;;11.30;6.50;;;;;;;18.77;43.64;103490.25;4994257;28;20463;-70
2023/02/11 11:33:43;;;;;;;10.40;5.88;;;;;;;18.72;43.33;103487.78;4992320;28;20385;-73
2023/02/11 11:36:12;;;;;;;10.75;6.38;;;;;;;18.75;43.48;103494.75;4994093;28;20030;-75
2023/02/11 11:38:54;;;;;;;11.57;7.13;;;;;;;18.68;43.47;103497.63;4994510;28;20598;-71